Airfield :
LOGIN :

Register | Disclaimer

   EN    FR    IT 

 










Legend :    VFR   Marginal VFR   IFR   Intensive IFR   Very Intensive IFR
Visi :
Ceiling :
>= 8 km
>= 3000ft
5 to 8 km
1000 to 3000 ft
1500m to 5 km
500 to 1000 ft
800 to 1500m
200 to 500 ft
< 800m
< 200 ft
Symbols :   Thunderstorms  Fog  Heavy snow  Heavy precipitations  Wind > 20 kt
SIGMETs :     Misc.  Thunderstorms  Icing  Turbulence  Mountain Waves  Volcanic Ashes







- Airport Elevation : 47 ft
- IATA code : BMA


ESSB - Stockholm-Bromma

CURRENT METAR :
  • 230720Z 27002KT 0400 R12/1100U R30/0800N FZFG VV002 M01/M01 Q1008 R12/29//66

EXPIRED METARs :
  • 230650Z VRB02KT 1900 BR VV002 M01/M01 Q1008 R12/29//66
  • 230620Z 00000KT 2000 BR OVC002 M01/M02 Q1008 RESN R12/29//66
  • 230550Z 00000KT 2300 BR OVC002 M02/M02 Q1007 R12/29//95
  • 230520Z 25002KT 5000 BR OVC002 M02/M02 Q1007 RESN R12/29//95
  • 230450Z AUTO 00000KT 3800 BR OVC002/// M01/M02 Q1007

TAF AMD TAF ESSB
Valid from the 23 at 07:00 until the 23 at 15:00 UTC


230713Z 2307/2315 27004KT 4000 BR OVC002
TEMPO 2307/2309 0250 FZFG VV002
BECMG 2309/2311 9999 NSW BKN008
PROB40 2311/2315 BKN016
No reported NOTAMs for that airfield.



MET'MAP, your aeronautical weather chart ! - Copyright ORBIFLY December 2007 - Disclaimer

ORBIFLY MET'MAP TEAM :

Programming & Development : Alexandra Zaïnal
Concept & Development : Baudouin d'Aumeries
Co-Development & Prog : Marc-Olivier Méhu
Technical & hardware support : Manuel Goepfert

Contact : metmap@orbifly.com




SOURCES & CREDITS :

   NOAA